Time,TemperatureF,DewpointF,PressureIn,WindDirection,WindDirectionDegrees,WindSpeedMPH,WindSpeedGustMPH,Humidity,HourlyPrecipIn,Conditions,Clouds,dailyrainin,SoftwareType,DateUTC
2013-05-13 00:00:00,46.1,41.2,30.11,WSW,254,0.0,2.0,83,0.00,,,0.00,Wunderground v.1.13,2013-05-13 04:00:00,
2013-05-13 00:10:00,46.0,41.7,30.12,WSW,254,0.0,2.0,85,0.00,,,0.00,Wunderground v.1.13,2013-05-13 04:10:00,
2013-05-13 00:20:00,45.9,41.6,30.12,WSW,254,0.0,2.0,85,0.00,,,0.00,Wunderground v.1.13,2013-05-13 04:20:00,
2013-05-13 00:30:00,45.7,42.1,30.13,WSW,254,0.0,2.0,87,0.00,,,0.00,Wunderground v.1.13,2013-05-13 04:30:00,
2013-05-13 00:40:00,45.6,42.0,30.13,WSW,254,0.0,2.0,87,0.00,,,0.00,Wunderground v.1.13,2013-05-13 04:40:00,
2013-05-13 00:50:00,45.4,42.1,30.13,WSW,254,0.0,2.0,88,0.00,,,0.00,Wunderground v.1.13,2013-05-13 04:50:00,
2013-05-13 01:00:00,45.1,41.8,30.13,WSW,254,0.0,2.0,88,0.00,,,0.00,Wunderground v.1.13,2013-05-13 05:00:00,
2013-05-13 01:10:00,44.8,41.5,30.13,WSW,254,0.0,2.0,88,0.00,,,0.00,Wunderground v.1.13,2013-05-13 05:10:00,
2013-05-13 01:20:00,44.5,41.5,30.13,WSW,254,0.0,2.0,89,0.00,,,0.00,Wunderground v.1.13,2013-05-13 05:20:00,
2013-05-13 01:30:00,44.4,41.7,30.13,WSW,254,0.0,2.0,90,0.00,,,0.00,Wunderground v.1.13,2013-05-13 05:30:00,
2013-05-13 01:40:00,44.4,41.7,30.12,WSW,254,0.0,2.0,90,0.00,,,0.00,Wunderground v.1.13,2013-05-13 05:40:00,
2013-05-13 01:50:00,44.2,41.5,30.12,WSW,254,0.0,2.0,90,0.00,,,0.00,Wunderground v.1.13,2013-05-13 05:50:00,
2013-05-13 02:00:00,44.1,41.6,30.12,WSW,254,0.0,2.0,91,0.00,,,0.00,Wunderground v.1.13,2013-05-13 06:00:00,
2013-05-13 02:10:00,44.0,41.5,30.12,WSW,254,0.0,2.0,91,0.00,,,0.00,Wunderground v.1.13,2013-05-13 06:10:00,
2013-05-13 02:20:00,43.8,41.3,30.12,WSW,254,0.0,2.0,91,0.00,,,0.00,Wunderground v.1.13,2013-05-13 06:20:00,
2013-05-13 02:30:00,43.4,41.2,30.12,WSW,254,0.0,2.0,92,0.00,,,0.00,Wunderground v.1.13,2013-05-13 06:30:00,
2013-05-13 02:40:00,43.1,40.9,30.12,WSW,254,0.0,2.0,92,0.00,,,0.00,Wunderground v.1.13,2013-05-13 06:40:00,
2013-05-13 02:50:00,43.0,40.8,30.12,WSW,254,0.0,2.0,92,0.00,,,0.00,Wunderground v.1.13,2013-05-13 06:50:00,
2013-05-13 03:00:00,42.8,40.9,30.12,WSW,254,0.0,2.0,93,0.00,,,0.00,Wunderground v.1.13,2013-05-13 07:00:00,
2013-05-13 03:10:00,42.8,40.9,30.12,WSW,254,0.0,2.0,93,0.00,,,0.00,Wunderground v.1.13,2013-05-13 07:10:00,
2013-05-13 03:20:00,42.7,40.8,30.12,WSW,254,0.0,2.0,93,0.00,,,0.00,Wunderground v.1.13,2013-05-13 07:20:00,
2013-05-13 03:30:00,42.5,40.6,30.12,WSW,254,0.0,2.0,93,0.00,,,0.00,Wunderground v.1.13,2013-05-13 07:30:00,
2013-05-13 03:40:00,42.2,40.0,30.12,WSW,254,0.0,2.0,92,0.00,,,0.00,Wunderground v.1.13,2013-05-13 07:40:00,
2013-05-13 03:50:00,42.1,40.2,30.12,WSW,254,0.0,2.0,93,0.00,,,0.00,Wunderground v.1.13,2013-05-13 07:50:00,
2013-05-13 04:00:00,41.7,39.5,30.12,WSW,254,0.0,2.0,92,0.00,,,0.00,Wunderground v.1.13,2013-05-13 08:00:00,
2013-05-13 04:10:00,41.4,39.3,30.13,WSW,254,0.0,2.0,92,0.00,,,0.00,Wunderground v.1.13,2013-05-13 08:10:00,
2013-05-13 04:20:00,41.4,39.3,30.13,WSW,254,0.0,2.0,92,0.00,,,0.00,Wunderground v.1.13,2013-05-13 08:20:00,
2013-05-13 04:30:00,41.2,39.3,30.13,WSW,254,0.0,2.0,93,0.00,,,0.00,Wunderground v.1.13,2013-05-13 08:30:00,
2013-05-13 04:40:00,41.2,39.3,30.13,WSW,254,0.0,2.0,93,0.00,,,0.00,Wunderground v.1.13,2013-05-13 08:40:00,
2013-05-13 04:50:00,41.1,39.5,30.13,WSW,254,0.0,2.0,94,0.00,,,0.00,Wunderground v.1.13,2013-05-13 08:50:00,
2013-05-13 05:00:00,41.0,39.4,30.13,WSW,254,0.0,2.0,94,0.00,,,0.00,Wunderground v.1.13,2013-05-13 09:00:00,
2013-05-13 05:10:00,41.0,39.4,30.13,WSW,254,0.0,2.0,94,0.00,,,0.00,Wunderground v.1.13,2013-05-13 09:10:00,
2013-05-13 05:20:00,40.7,39.1,30.13,WSW,254,0.0,2.0,94,0.00,,,0.00,Wunderground v.1.13,2013-05-13 09:20:00,
2013-05-13 05:30:00,40.5,38.9,30.13,WSW,254,0.0,2.0,94,0.00,,,0.00,Wunderground v.1.13,2013-05-13 09:30:00,
2013-05-13 05:40:00,40.4,38.8,30.14,WSW,254,0.0,2.0,94,0.00,,,0.00,Wunderground v.1.13,2013-05-13 09:40:00,
2013-05-13 05:50:00,40.4,38.8,30.14,WSW,254,0.0,2.0,94,0.00,,,0.00,Wunderground v.1.13,2013-05-13 09:50:00,
2013-05-13 06:00:00,40.2,38.6,30.14,WSW,254,0.0,2.0,94,0.00,,,0.00,Wunderground v.1.13,2013-05-13 10:00:00,
2013-05-13 06:10:00,40.2,38.9,30.15,WSW,254,0.0,2.0,95,0.00,,,0.00,Wunderground v.1.13,2013-05-13 10:10:00,
2013-05-13 06:20:00,40.2,38.9,30.15,WSW,254,0.0,2.0,95,0.00,,,0.00,Wunderground v.1.13,2013-05-13 10:20:00,
2013-05-13 06:30:00,40.1,38.8,30.15,WSW,254,0.0,2.0,95,0.00,,,0.00,Wunderground v.1.13,2013-05-13 10:30:00,
2013-05-13 06:40:00,40.0,38.7,30.16,WSW,254,0.0,2.0,95,0.00,,,0.00,Wunderground v.1.13,2013-05-13 10:40:00,
2013-05-13 06:50:00,39.8,38.5,30.16,WSW,254,0.0,2.0,95,0.00,,,0.00,Wunderground v.1.13,2013-05-13 10:50:00,
2013-05-13 07:00:00,39.7,38.4,30.16,WSW,254,0.0,2.0,95,0.00,,,0.00,Wunderground v.1.13,2013-05-13 11:00:00,
2013-05-13 07:10:00,39.5,37.9,30.17,WSW,254,0.0,2.0,94,0.00,,,0.00,Wunderground v.1.13,2013-05-13 11:10:00,
2013-05-13 07:20:00,39.4,37.8,30.17,WSW,254,0.0,2.0,94,0.00,,,0.00,Wunderground v.1.13,2013-05-13 11:20:00,
2013-05-13 07:30:00,39.5,37.9,30.18,WSW,254,0.0,2.0,94,0.00,,,0.00,Wunderground v.1.13,2013-05-13 11:30:00,
2013-05-13 07:40:00,39.7,38.1,30.18,WSW,254,0.0,2.0,94,0.00,,,0.00,Wunderground v.1.13,2013-05-13 11:40:00,
2013-05-13 07:50:00,40.0,38.4,30.18,WSW,254,0.0,2.0,94,0.00,,,0.00,Wunderground v.1.13,2013-05-13 11:50:00,
2013-05-13 08:00:00,40.4,38.8,30.19,WSW,254,0.0,2.0,94,0.00,,,0.00,Wunderground v.1.13,2013-05-13 12:00:00,
2013-05-13 08:10:00,40.8,38.7,30.19,WSW,254,0.0,2.0,92,0.00,,,0.00,Wunderground v.1.13,2013-05-13 12:10:00,
2013-05-13 08:20:00,41.7,39.8,30.19,WSW,254,0.0,2.0,93,0.00,,,0.00,Wunderground v.1.13,2013-05-13 12:20:00,
2013-05-13 08:30:00,42.2,39.8,30.19,WSW,254,0.0,2.0,91,0.00,,,0.00,Wunderground v.1.13,2013-05-13 12:30:00,
2013-05-13 08:40:00,43.0,40.3,30.20,WSW,254,0.0,2.0,90,0.00,,,0.00,Wunderground v.1.13,2013-05-13 12:40:00,
2013-05-13 08:50:00,43.8,39.6,30.20,WSW,254,0.0,2.0,85,0.00,,,0.00,Wunderground v.1.13,2013-05-13 12:50:00,
2013-05-13 09:00:00,44.8,38.4,30.20,WSW,254,0.0,2.0,78,0.00,,,0.00,Wunderground v.1.13,2013-05-13 13:00:00,
2013-05-13 09:10:00,45.9,37.0,30.20,WSW,254,0.0,2.0,71,0.00,,,0.00,Wunderground v.1.13,2013-05-13 13:10:00,
2013-05-13 09:20:00,47.0,37.0,30.20,WSW,257,0.0,2.0,68,0.00,,,0.00,Wunderground v.1.13,2013-05-13 13:20:00,
2013-05-13 09:30:00,48.2,39.2,30.21,WSW,257,0.0,2.0,71,0.00,,,0.00,Wunderground v.1.13,2013-05-13 13:30:00,
2013-05-13 09:40:00,49.1,36.2,30.21,WSW,257,0.0,2.0,61,0.00,,,0.00,Wunderground v.1.13,2013-05-13 13:40:00,
2013-05-13 09:50:00,50.0,37.5,30.21,WSW,257,0.0,2.0,62,0.00,,,0.00,Wunderground v.1.13,2013-05-13 13:50:00,
2013-05-13 10:00:00,51.0,35.8,30.21,WSW,257,0.0,2.0,56,0.00,,,0.00,Wunderground v.1.13,2013-05-13 14:00:00,
2013-05-13 10:10:00,51.9,35.8,30.21,WSW,257,0.0,2.0,54,0.00,,,0.00,Wunderground v.1.13,2013-05-13 14:10:00,
2013-05-13 10:20:00,52.8,34.2,30.21,WSW,257,0.0,2.0,49,0.00,,,0.00,Wunderground v.1.13,2013-05-13 14:20:00,
2013-05-13 10:30:00,54.3,31.7,30.21,WSW,252,0.0,2.0,42,0.00,,,0.00,Wunderground v.1.13,2013-05-13 14:30:00,
2013-05-13 10:40:00,55.5,32.8,30.21,SSW,200,0.0,2.0,42,0.00,,,0.00,Wunderground v.1.13,2013-05-13 14:40:00,
2013-05-13 10:50:00,56.5,33.1,30.21,SSW,200,0.0,2.0,41,0.00,,,0.00,Wunderground v.1.13,2013-05-13 14:50:00,
2013-05-13 11:00:00,57.7,33.5,30.21,WNW,300,0.0,2.0,40,0.00,,,0.00,Wunderground v.1.13,2013-05-13 15:00:00,
2013-05-13 11:10:00,57.1,34.8,30.22,WSW,254,0.0,2.0,43,0.00,,,0.00,Wunderground v.1.13,2013-05-13 15:10:00,
2013-05-13 11:20:00,57.5,32.7,30.22,NNW,346,0.0,2.0,39,0.00,,,0.00,Wunderground v.1.13,2013-05-13 15:20:00,
2013-05-13 11:30:00,58.5,33.0,30.21,NNW,348,0.0,2.0,38,0.00,,,0.00,Wunderground v.1.13,2013-05-13 15:30:00,
2013-05-13 11:40:00,58.6,35.6,30.21,NW,323,0.0,2.0,42,0.00,,,0.00,Wunderground v.1.13,2013-05-13 15:40:00,
2013-05-13 11:50:00,58.9,35.8,30.21,SW,236,0.0,2.0,42,0.00,,,0.00,Wunderground v.1.13,2013-05-13 15:50:00,
2013-05-13 12:00:00,59.5,33.2,30.21,SW,236,0.0,2.0,37,0.00,,,0.00,Wunderground v.1.13,2013-05-13 16:00:00,
2013-05-13 12:10:00,59.8,35.4,30.20,WNW,288,0.0,2.0,40,0.00,,,0.00,Wunderground v.1.13,2013-05-13 16:10:00,
2013-05-13 12:20:00,60.6,35.5,30.20,NE,43,0.0,2.0,39,0.00,,,0.00,Wunderground v.1.13,2013-05-13 16:20:00,
2013-05-13 12:30:00,61.2,32.6,30.20,North,5,0.0,2.0,34,0.00,,,0.00,Wunderground v.1.13,2013-05-13 16:30:00,
2013-05-13 12:40:00,61.1,37.2,30.20,WSW,256,0.0,2.0,41,0.00,,,0.00,Wunderground v.1.13,2013-05-13 16:40:00,
2013-05-13 12:50:00,61.9,34.6,30.20,WNW,291,0.0,2.0,36,0.00,,,0.00,Wunderground v.1.13,2013-05-13 16:50:00,
2013-05-13 13:00:00,62.2,30.4,30.20,West,271,0.0,2.0,30,0.00,,,0.00,Wunderground v.1.13,2013-05-13 17:00:00,
2013-05-13 13:10:00,61.5,35.0,30.19,WSW,242,0.0,2.0,37,0.00,,,0.00,Wunderground v.1.13,2013-05-13 17:10:00,
2013-05-13 13:20:00,61.9,34.6,30.19,SSW,212,0.0,2.0,36,0.00,,,0.00,Wunderground v.1.13,2013-05-13 17:20:00,
2013-05-13 13:30:00,62.5,35.2,30.19,SSW,209,0.0,2.0,36,0.00,,,0.00,Wunderground v.1.13,2013-05-13 17:30:00,
2013-05-13 13:40:00,62.6,30.7,30.19,SW,217,0.0,2.0,30,0.00,,,0.00,Wunderground v.1.13,2013-05-13 17:40:00,
2013-05-13 13:50:00,63.6,32.4,30.19,West,263,0.0,2.0,31,0.00,,,0.00,Wunderground v.1.13,2013-05-13 17:50:00,
2013-05-13 14:00:00,63.8,30.0,30.17,WSW,248,0.0,2.0,28,0.00,,,0.00,Wunderground v.1.13,2013-05-13 18:00:00,
2013-05-13 14:10:00,64.1,32.8,30.17,South,181,0.0,2.0,31,0.00,,,0.00,Wunderground v.1.13,2013-05-13 18:10:00,
2013-05-13 14:20:00,64.2,31.3,30.17,WNW,284,0.0,2.0,29,0.00,,,0.00,Wunderground v.1.13,2013-05-13 18:20:00,
2013-05-13 14:30:00,65.2,36.1,30.17,North,349,0.0,2.0,34,0.00,,,0.00,Wunderground v.1.13,2013-05-13 18:30:00,
2013-05-13 14:40:00,65.4,33.1,30.16,NNE,17,0.0,2.0,30,0.00,,,0.00,Wunderground v.1.13,2013-05-13 18:40:00,
2013-05-13 14:50:00,65.4,31.4,30.16,NNW,328,0.0,2.0,28,0.00,,,0.00,Wunderground v.1.13,2013-05-13 18:50:00,
2013-05-13 15:00:00,65.7,32.5,30.15,SSW,202,0.0,2.0,29,0.00,,,0.00,Wunderground v.1.13,2013-05-13 19:00:00,
2013-05-13 15:10:00,65.5,35.6,30.15,WSW,244,0.0,2.0,33,0.00,,,0.00,Wunderground v.1.13,2013-05-13 19:10:00,
2013-05-13 15:20:00,65.9,30.9,30.15,West,269,0.0,2.0,27,0.00,,,0.00,Wunderground v.1.13,2013-05-13 19:20:00,
2013-05-13 15:30:00,65.5,32.4,30.15,WNW,296,0.0,2.0,29,0.00,,,0.00,Wunderground v.1.13,2013-05-13 19:30:00,
2013-05-13 15:40:00,65.5,32.4,30.14,South,184,0.0,4.0,29,0.00,,,0.00,Wunderground v.1.13,2013-05-13 19:40:00,
2013-05-13 15:50:00,65.4,33.1,30.14,SSW,193,1.0,2.0,30,0.00,,,0.00,Wunderground v.1.13,2013-05-13 19:50:00,
2013-05-13 16:00:00,66.3,32.2,30.14,WNW,298,0.0,2.0,28,0.00,,,0.00,Wunderground v.1.13,2013-05-13 20:00:00,
2013-05-13 16:10:00,66.7,31.6,30.13,South,169,0.0,2.0,27,0.00,,,0.00,Wunderground v.1.13,2013-05-13 20:10:00,
2013-05-13 16:20:00,66.7,33.4,30.13,NW,306,0.0,2.0,29,0.00,,,0.00,Wunderground v.1.13,2013-05-13 20:20:00,
2013-05-13 16:30:00,65.4,31.4,30.13,WNW,290,1.0,1.0,28,0.00,,,0.00,Wunderground v.1.13,2013-05-13 20:30:00,
2013-05-13 16:40:00,66.3,32.2,30.12,SW,234,0.0,2.0,28,0.00,,,0.00,Wunderground v.1.13,2013-05-13 20:40:00,
2013-05-13 16:50:00,66.5,31.5,30.12,WNW,293,0.0,2.0,27,0.00,,,0.00,Wunderground v.1.13,2013-05-13 20:50:00,
2013-05-13 17:00:00,67.3,33.1,30.12,WSW,242,0.0,2.0,28,0.00,,,0.00,Wunderground v.1.13,2013-05-13 21:00:00,
2013-05-13 17:10:00,68.2,32.0,30.12,WSW,258,0.0,2.0,26,0.00,,,0.00,Wunderground v.1.13,2013-05-13 21:10:00,
2013-05-13 17:20:00,68.2,35.6,30.12,WNW,292,0.0,2.0,30,0.00,,,0.00,Wunderground v.1.13,2013-05-13 21:20:00,
2013-05-13 17:30:00,67.8,32.6,30.11,SW,234,0.0,2.0,27,0.00,,,0.00,Wunderground v.1.13,2013-05-13 21:30:00,
2013-05-13 17:40:00,67.3,32.1,30.11,SW,234,0.0,2.0,27,0.00,,,0.00,Wunderground v.1.13,2013-05-13 21:40:00,
2013-05-13 17:50:00,66.5,32.4,30.11,SSW,192,0.0,2.0,28,0.00,,,0.00,Wunderground v.1.13,2013-05-13 21:50:00,
2013-05-13 18:00:00,65.9,31.8,30.11,WNW,289,0.0,2.0,28,0.00,,,0.00,Wunderground v.1.13,2013-05-13 22:00:00,
2013-05-13 18:10:00,64.9,31.0,30.11,West,261,0.0,2.0,28,0.00,,,0.00,Wunderground v.1.13,2013-05-13 22:10:00,
2013-05-13 18:20:00,64.7,36.4,30.11,West,261,0.0,2.0,35,0.00,,,0.00,Wunderground v.1.13,2013-05-13 22:20:00,
2013-05-13 18:30:00,64.6,32.4,30.11,WSW,239,0.0,2.0,30,0.00,,,0.00,Wunderground v.1.13,2013-05-13 22:30:00,
2013-05-13 18:40:00,64.1,31.2,30.11,SSW,193,0.0,2.0,29,0.00,,,0.00,Wunderground v.1.13,2013-05-13 22:40:00,
2013-05-13 18:50:00,63.9,31.0,30.11,WSW,245,0.0,2.0,29,0.00,,,0.00,Wunderground v.1.13,2013-05-13 22:50:00,
2013-05-13 19:00:00,63.6,31.6,30.11,WSW,244,0.0,2.0,30,0.00,,,0.00,Wunderground v.1.13,2013-05-13 23:00:00,
2013-05-13 19:10:00,63.4,30.6,30.11,WSW,244,0.0,2.0,29,0.00,,,0.00,Wunderground v.1.13,2013-05-13 23:10:00,
2013-05-13 19:20:00,63.3,35.9,30.11,WSW,244,0.0,2.0,36,0.00,,,0.00,Wunderground v.1.13,2013-05-13 23:20:00,
2013-05-13 19:30:00,62.8,34.7,30.11,WSW,244,0.0,2.0,35,0.00,,,0.00,Wunderground v.1.13,2013-05-13 23:30:00,
2013-05-13 19:40:00,62.0,33.3,30.11,SW,220,0.0,0.0,34,0.00,,,0.00,Wunderground v.1.13,2013-05-13 23:40:00,
2013-05-13 19:50:00,61.5,32.8,30.11,SW,220,0.0,0.0,34,0.00,,,0.00,Wunderground v.1.13,2013-05-13 23:50:00,
2013-05-13 20:00:00,60.9,36.4,30.11,SW,220,0.0,0.0,40,0.00,,,0.00,Wunderground v.1.13,2013-05-14 00:00:00,
2013-05-13 20:10:00,60.1,34.4,30.11,SW,220,0.0,2.0,38,0.00,,,0.00,Wunderground v.1.13,2013-05-14 00:10:00,
2013-05-13 20:20:00,59.4,32.4,30.11,SW,220,0.0,2.0,36,0.00,,,0.00,Wunderground v.1.13,2013-05-14 00:20:00,
2013-05-13 20:30:00,58.9,37.6,30.12,SW,220,0.0,2.0,45,0.00,,,0.00,Wunderground v.1.13,2013-05-14 00:30:00,
2013-05-13 20:40:00,57.9,35.5,30.12,SW,220,0.0,2.0,43,0.00,,,0.00,Wunderground v.1.13,2013-05-14 00:40:00,
2013-05-13 20:50:00,56.8,37.8,30.12,SW,220,0.0,2.0,49,0.00,,,0.00,Wunderground v.1.13,2013-05-14 00:50:00,
2013-05-13 21:00:00,55.8,36.4,30.13,SW,220,0.0,2.0,48,0.00,,,0.00,Wunderground v.1.13,2013-05-14 01:00:00,
2013-05-13 21:10:00,55.2,37.4,30.14,SW,220,0.0,2.0,51,0.00,,,0.00,Wunderground v.1.13,2013-05-14 01:10:00,
2013-05-13 21:20:00,54.3,38.0,30.14,SW,220,0.0,2.0,54,0.00,,,0.00,Wunderground v.1.13,2013-05-14 01:20:00,
2013-05-13 21:30:00,53.8,36.6,30.15,SW,220,0.0,2.0,52,0.00,,,0.00,Wunderground v.1.13,2013-05-14 01:30:00,
2013-05-13 21:40:00,53.4,35.7,30.15,SW,220,0.0,2.0,51,0.00,,,0.00,Wunderground v.1.13,2013-05-14 01:40:00,
2013-05-13 21:50:00,53.0,39.9,30.15,SW,220,0.0,2.0,61,0.00,,,0.00,Wunderground v.1.13,2013-05-14 01:50:00,
2013-05-13 22:00:00,52.5,39.4,30.15,SW,220,0.0,2.0,61,0.00,,,0.00,Wunderground v.1.13,2013-05-14 02:00:00,
2013-05-13 22:10:00,51.9,40.5,30.16,SW,220,0.0,2.0,65,0.00,,,0.00,Wunderground v.1.13,2013-05-14 02:10:00,
2013-05-13 22:20:00,51.5,40.5,30.16,SW,220,0.0,2.0,66,0.00,,,0.00,Wunderground v.1.13,2013-05-14 02:20:00,
2013-05-13 22:30:00,51.0,41.6,30.16,SW,220,0.0,2.0,70,0.00,,,0.00,Wunderground v.1.13,2013-05-14 02:30:00,
2013-05-13 22:40:00,50.6,42.6,30.17,SW,220,0.0,2.0,74,0.00,,,0.00,Wunderground v.1.13,2013-05-14 02:40:00,
2013-05-13 22:50:00,50.0,43.4,30.17,SW,220,0.0,2.0,78,0.00,,,0.00,Wunderground v.1.13,2013-05-14 02:50:00,
2013-05-13 23:00:00,49.8,43.9,30.17,SW,220,0.0,2.0,80,0.00,,,0.00,Wunderground v.1.13,2013-05-14 03:00:00,
2013-05-13 23:10:00,49.5,43.6,30.17,SW,220,0.0,2.0,80,0.00,,,0.00,Wunderground v.1.13,2013-05-14 03:10:00,
2013-05-13 23:20:00,49.1,42.2,30.17,SW,220,0.0,2.0,77,0.00,,,0.00,Wunderground v.1.13,2013-05-14 03:20:00,
2013-05-13 23:30:00,48.7,41.8,30.18,SW,220,0.0,2.0,77,0.00,,,0.00,Wunderground v.1.13,2013-05-14 03:30:00,
2013-05-13 23:40:00,48.2,42.0,30.18,SW,220,0.0,2.0,79,0.00,,,0.00,Wunderground v.1.13,2013-05-14 03:40:00,
2013-05-13 23:50:00,47.9,42.0,30.18,SW,220,0.0,2.0,80,0.00,,,0.00,Wunderground v.1.13,2013-05-14 03:50:00,